sensor_id;sensor_type;location;lat;lon;timestamp;temperature;humidity
32296;DHT22;18781;51.550;5.418;2023-04-21T00:01:00;11.20;63.80
32296;DHT22;18781;51.550;5.418;2023-04-21T00:03:27;11.20;64.10
32296;DHT22;18781;51.550;5.418;2023-04-21T00:05:57;11.10;64.70
32296;DHT22;18781;51.550;5.418;2023-04-21T00:08:23;11.10;64.50
32296;DHT22;18781;51.550;5.418;2023-04-21T00:10:49;11.20;64.10
32296;DHT22;18781;51.550;5.418;2023-04-21T00:13:14;11.10;64.50
32296;DHT22;18781;51.550;5.418;2023-04-21T00:15:40;11.10;64.60
32296;DHT22;18781;51.550;5.418;2023-04-21T00:18:06;11.10;64.50
32296;DHT22;18781;51.550;5.418;2023-04-21T00:20:32;11.10;64.60
32296;DHT22;18781;51.550;5.418;2023-04-21T00:22:58;11.10;64.90
32296;DHT22;18781;51.550;5.418;2023-04-21T00:25:25;11.10;64.80
32296;DHT22;18781;51.550;5.418;2023-04-21T00:27:50;11.10;65.30
32296;DHT22;18781;51.550;5.418;2023-04-21T00:30:16;11.10;65.50
32296;DHT22;18781;51.550;5.418;2023-04-21T00:32:42;11.10;65.20
32296;DHT22;18781;51.550;5.418;2023-04-21T00:35:08;11.10;65.30
32296;DHT22;18781;51.550;5.418;2023-04-21T00:37:34;11.00;65.40
32296;DHT22;18781;51.550;5.418;2023-04-21T00:40:00;11.10;65.90
32296;DHT22;18781;51.550;5.418;2023-04-21T00:42:26;11.10;65.70
32296;DHT22;18781;51.550;5.418;2023-04-21T00:44:52;11.10;65.70
32296;DHT22;18781;51.550;5.418;2023-04-21T00:47:18;11.00;65.90
32296;DHT22;18781;51.550;5.418;2023-04-21T00:49:44;11.10;65.80
32296;DHT22;18781;51.550;5.418;2023-04-21T00:52:10;11.10;66.10
32296;DHT22;18781;51.550;5.418;2023-04-21T00:54:36;11.00;66.00
32296;DHT22;18781;51.550;5.418;2023-04-21T00:57:02;11.00;66.20
32296;DHT22;18781;51.550;5.418;2023-04-21T00:59:31;11.00;66.20
32296;DHT22;18781;51.550;5.418;2023-04-21T01:01:56;11.00;66.10
32296;DHT22;18781;51.550;5.418;2023-04-21T01:04:22;11.00;66.00
32296;DHT22;18781;51.550;5.418;2023-04-21T01:06:48;11.00;66.10
32296;DHT22;18781;51.550;5.418;2023-04-21T01:09:13;11.00;66.30
32296;DHT22;18781;51.550;5.418;2023-04-21T01:11:39;11.00;66.10
32296;DHT22;18781;51.550;5.418;2023-04-21T01:14:05;11.00;66.40
32296;DHT22;18781;51.550;5.418;2023-04-21T01:16:31;11.00;66.40
32296;DHT22;18781;51.550;5.418;2023-04-21T01:18:58;11.10;66.50
32296;DHT22;18781;51.550;5.418;2023-04-21T01:21:24;11.10;66.50
32296;DHT22;18781;51.550;5.418;2023-04-21T01:23:51;11.10;66.40
32296;DHT22;18781;51.550;5.418;2023-04-21T01:26:21;11.10;66.40
32296;DHT22;18781;51.550;5.418;2023-04-21T01:28:47;11.10;66.70
32296;DHT22;18781;51.550;5.418;2023-04-21T01:31:14;11.00;66.70
32296;DHT22;18781;51.550;5.418;2023-04-21T01:33:40;11.00;67.00
32296;DHT22;18781;51.550;5.418;2023-04-21T01:36:07;11.00;67.00
32296;DHT22;18781;51.550;5.418;2023-04-21T01:38:33;11.00;66.90
32296;DHT22;18781;51.550;5.418;2023-04-21T01:40:59;11.00;67.00
32296;DHT22;18781;51.550;5.418;2023-04-21T01:43:25;11.00;67.20
32296;DHT22;18781;51.550;5.418;2023-04-21T01:45:51;11.00;67.30
32296;DHT22;18781;51.550;5.418;2023-04-21T01:48:17;11.00;67.40
32296;DHT22;18781;51.550;5.418;2023-04-21T01:50:42;11.00;67.40
32296;DHT22;18781;51.550;5.418;2023-04-21T01:53:08;10.90;67.30
32296;DHT22;18781;51.550;5.418;2023-04-21T01:55:34;10.90;67.80
32296;DHT22;18781;51.550;5.418;2023-04-21T01:57:59;10.90;67.60
32296;DHT22;18781;51.550;5.418;2023-04-21T02:00:25;10.90;67.80
32296;DHT22;18781;51.550;5.418;2023-04-21T02:02:51;10.90;68.00
32296;DHT22;18781;51.550;5.418;2023-04-21T02:05:17;10.90;67.90
32296;DHT22;18781;51.550;5.418;2023-04-21T02:07:43;10.80;67.90
32296;DHT22;18781;51.550;5.418;2023-04-21T02:10:09;10.90;68.10
32296;DHT22;18781;51.550;5.418;2023-04-21T02:12:34;10.90;68.10
32296;DHT22;18781;51.550;5.418;2023-04-21T02:15:00;10.90;68.00
32296;DHT22;18781;51.550;5.418;2023-04-21T02:17:26;10.90;68.10
32296;DHT22;18781;51.550;5.418;2023-04-21T02:19:51;10.90;68.20
32296;DHT22;18781;51.550;5.418;2023-04-21T02:22:17;10.90;68.50
32296;DHT22;18781;51.550;5.418;2023-04-21T02:24:42;10.90;68.30
32296;DHT22;18781;51.550;5.418;2023-04-21T02:27:08;10.80;68.20
32296;DHT22;18781;51.550;5.418;2023-04-21T02:29:34;10.80;68.30
32296;DHT22;18781;51.550;5.418;2023-04-21T02:31:59;10.80;68.40
32296;DHT22;18781;51.550;5.418;2023-04-21T02:34:25;10.80;68.80
32296;DHT22;18781;51.550;5.418;2023-04-21T02:36:51;10.80;68.80
32296;DHT22;18781;51.550;5.418;2023-04-21T02:39:16;10.80;68.60
32296;DHT22;18781;51.550;5.418;2023-04-21T02:41:42;10.80;68.90
32296;DHT22;18781;51.550;5.418;2023-04-21T02:44:07;10.80;69.20
32296;DHT22;18781;51.550;5.418;2023-04-21T02:46:33;10.80;69.20
32296;DHT22;18781;51.550;5.418;2023-04-21T02:48:58;10.80;69.10
32296;DHT22;18781;51.550;5.418;2023-04-21T02:51:24;10.80;69.60
32296;DHT22;18781;51.550;5.418;2023-04-21T02:53:50;10.80;69.50
32296;DHT22;18781;51.550;5.418;2023-04-21T02:56:15;10.80;69.40
32296;DHT22;18781;51.550;5.418;2023-04-21T02:58:41;10.70;69.50
32296;DHT22;18781;51.550;5.418;2023-04-21T03:01:07;10.70;69.60
32296;DHT22;18781;51.550;5.418;2023-04-21T03:03:33;10.80;69.90
32296;DHT22;18781;51.550;5.418;2023-04-21T03:06:03;10.80;69.80
32296;DHT22;18781;51.550;5.418;2023-04-21T03:08:30;10.80;70.00
32296;DHT22;18781;51.550;5.418;2023-04-21T03:10:56;10.80;69.70
32296;DHT22;18781;51.550;5.418;2023-04-21T03:13:22;10.80;69.60
32296;DHT22;18781;51.550;5.418;2023-04-21T03:15:48;10.80;69.60
32296;DHT22;18781;51.550;5.418;2023-04-21T03:18:14;10.80;69.60
32296;DHT22;18781;51.550;5.418;2023-04-21T03:20:40;10.80;69.60
32296;DHT22;18781;51.550;5.418;2023-04-21T03:23:05;10.80;69.60
32296;DHT22;18781;51.550;5.418;2023-04-21T03:25:31;10.80;69.60
32296;DHT22;18781;51.550;5.418;2023-04-21T03:27:57;10.80;69.60
32296;DHT22;18781;51.550;5.418;2023-04-21T03:30:23;10.80;69.50
32296;DHT22;18781;51.550;5.418;2023-04-21T03:32:50;10.80;69.40
32296;DHT22;18781;51.550;5.418;2023-04-21T03:35:16;10.80;69.40
32296;DHT22;18781;51.550;5.418;2023-04-21T03:37:42;10.80;69.40
32296;DHT22;18781;51.550;5.418;2023-04-21T03:40:08;10.80;69.40
32296;DHT22;18781;51.550;5.418;2023-04-21T03:42:36;10.80;69.40
32296;DHT22;18781;51.550;5.418;2023-04-21T03:45:04;10.80;69.80
32296;DHT22;18781;51.550;5.418;2023-04-21T03:47:30;10.80;69.70
32296;DHT22;18781;51.550;5.418;2023-04-21T03:49:55;10.80;69.60
32296;DHT22;18781;51.550;5.418;2023-04-21T03:52:21;10.80;69.40
32296;DHT22;18781;51.550;5.418;2023-04-21T03:54:47;10.80;69.50
32296;DHT22;18781;51.550;5.418;2023-04-21T03:57:13;10.80;69.30
32296;DHT22;18781;51.550;5.418;2023-04-21T03:59:39;10.80;69.30
32296;DHT22;18781;51.550;5.418;2023-04-21T04:02:04;10.80;69.90
32296;DHT22;18781;51.550;5.418;2023-04-21T04:04:30;10.80;69.30
32296;DHT22;18781;51.550;5.418;2023-04-21T04:06:55;10.80;69.20
32296;DHT22;18781;51.550;5.418;2023-04-21T04:09:27;10.80;69.20
32296;DHT22;18781;51.550;5.418;2023-04-21T04:11:53;10.80;69.70
32296;DHT22;18781;51.550;5.418;2023-04-21T04:14:19;10.80;69.40
32296;DHT22;18781;51.550;5.418;2023-04-21T04:16:44;10.80;69.50
32296;DHT22;18781;51.550;5.418;2023-04-21T04:19:12;10.80;69.40
32296;DHT22;18781;51.550;5.418;2023-04-21T04:21:37;10.80;69.70
32296;DHT22;18781;51.550;5.418;2023-04-21T04:24:03;10.80;69.50
32296;DHT22;18781;51.550;5.418;2023-04-21T04:26:32;10.80;69.60
32296;DHT22;18781;51.550;5.418;2023-04-21T04:28:58;10.90;69.50
32296;DHT22;18781;51.550;5.418;2023-04-21T04:31:29;10.80;69.20
32296;DHT22;18781;51.550;5.418;2023-04-21T04:33:56;10.80;69.40
32296;DHT22;18781;51.550;5.418;2023-04-21T04:36:22;10.80;69.60
32296;DHT22;18781;51.550;5.418;2023-04-21T04:38:48;10.90;69.70
32296;DHT22;18781;51.550;5.418;2023-04-21T04:41:14;10.90;69.70
32296;DHT22;18781;51.550;5.418;2023-04-21T04:43:41;10.90;69.70
32296;DHT22;18781;51.550;5.418;2023-04-21T04:46:07;10.90;69.70
32296;DHT22;18781;51.550;5.418;2023-04-21T04:48:37;10.90;69.80
32296;DHT22;18781;51.550;5.418;2023-04-21T04:51:03;10.90;69.90
32296;DHT22;18781;51.550;5.418;2023-04-21T04:53:29;10.90;70.00
32296;DHT22;18781;51.550;5.418;2023-04-21T04:55:55;10.90;70.00
32296;DHT22;18781;51.550;5.418;2023-04-21T04:58:22;10.90;70.10
32296;DHT22;18781;51.550;5.418;2023-04-21T05:00:49;10.90;70.10
32296;DHT22;18781;51.550;5.418;2023-04-21T05:03:14;10.90;70.00
32296;DHT22;18781;51.550;5.418;2023-04-21T05:05:40;10.90;70.00
32296;DHT22;18781;51.550;5.418;2023-04-21T05:08:06;10.90;70.10
32296;DHT22;18781;51.550;5.418;2023-04-21T05:10:31;10.90;70.10
32296;DHT22;18781;51.550;5.418;2023-04-21T05:12:57;10.90;70.20
32296;DHT22;18781;51.550;5.418;2023-04-21T05:15:22;10.90;70.20
32296;DHT22;18781;51.550;5.418;2023-04-21T05:17:48;10.90;70.40
32296;DHT22;18781;51.550;5.418;2023-04-21T05:20:13;10.90;70.40
32296;DHT22;18781;51.550;5.418;2023-04-21T05:22:39;10.90;70.40
32296;DHT22;18781;51.550;5.418;2023-04-21T05:25:05;10.90;70.50
32296;DHT22;18781;51.550;5.418;2023-04-21T05:27:32;10.90;70.50
32296;DHT22;18781;51.550;5.418;2023-04-21T05:29:58;10.90;70.50
32296;DHT22;18781;51.550;5.418;2023-04-21T05:32:24;10.90;70.60
32296;DHT22;18781;51.550;5.418;2023-04-21T05:34:50;10.90;70.60
32296;DHT22;18781;51.550;5.418;2023-04-21T05:37:16;10.90;70.70
32296;DHT22;18781;51.550;5.418;2023-04-21T05:39:41;10.90;70.70
32296;DHT22;18781;51.550;5.418;2023-04-21T05:42:09;11.00;71.00
32296;DHT22;18781;51.550;5.418;2023-04-21T05:44:35;10.90;71.10
32296;DHT22;18781;51.550;5.418;2023-04-21T05:47:02;11.00;71.10
32296;DHT22;18781;51.550;5.418;2023-04-21T05:49:28;11.00;71.10
32296;DHT22;18781;51.550;5.418;2023-04-21T05:51:54;11.00;71.00
32296;DHT22;18781;51.550;5.418;2023-04-21T05:54:20;11.00;71.10
32296;DHT22;18781;51.550;5.418;2023-04-21T05:56:45;11.10;71.30
32296;DHT22;18781;51.550;5.418;2023-04-21T05:59:12;11.10;71.10
32296;DHT22;18781;51.550;5.418;2023-04-21T06:01:38;11.10;71.00
32296;DHT22;18781;51.550;5.418;2023-04-21T06:04:03;11.10;71.00
32296;DHT22;18781;51.550;5.418;2023-04-21T06:06:29;11.10;71.10
32296;DHT22;18781;51.550;5.418;2023-04-21T06:08:54;11.20;71.00
32296;DHT22;18781;51.550;5.418;2023-04-21T06:11:21;11.10;70.90
32296;DHT22;18781;51.550;5.418;2023-04-21T06:13:48;11.10;70.90
32296;DHT22;18781;51.550;5.418;2023-04-21T06:16:14;11.20;71.20
32296;DHT22;18781;51.550;5.418;2023-04-21T06:18:39;11.20;71.20
32296;DHT22;18781;51.550;5.418;2023-04-21T06:21:05;11.20;71.20
32296;DHT22;18781;51.550;5.418;2023-04-21T06:23:31;11.20;71.30
32296;DHT22;18781;51.550;5.418;2023-04-21T06:26:05;11.20;71.30
32296;DHT22;18781;51.550;5.418;2023-04-21T06:28:32;11.30;71.90
32296;DHT22;18781;51.550;5.418;2023-04-21T06:30:59;11.30;72.00
32296;DHT22;18781;51.550;5.418;2023-04-21T06:33:25;11.30;71.50
32296;DHT22;18781;51.550;5.418;2023-04-21T06:35:51;11.40;71.50
32296;DHT22;18781;51.550;5.418;2023-04-21T06:38:17;11.40;71.70
32296;DHT22;18781;51.550;5.418;2023-04-21T06:40:43;11.40;71.60
32296;DHT22;18781;51.550;5.418;2023-04-21T06:43:09;11.40;71.80
32296;DHT22;18781;51.550;5.418;2023-04-21T06:45:34;11.50;71.80
32296;DHT22;18781;51.550;5.418;2023-04-21T06:48:00;11.50;71.90
32296;DHT22;18781;51.550;5.418;2023-04-21T06:50:25;11.50;71.90
32296;DHT22;18781;51.550;5.418;2023-04-21T06:52:51;11.60;71.90
32296;DHT22;18781;51.550;5.418;2023-04-21T06:55:17;11.60;71.80
32296;DHT22;18781;51.550;5.418;2023-04-21T06:57:42;11.70;71.90
32296;DHT22;18781;51.550;5.418;2023-04-21T07:00:08;11.70;71.90
32296;DHT22;18781;51.550;5.418;2023-04-21T07:02:34;11.70;72.00
32296;DHT22;18781;51.550;5.418;2023-04-21T07:05:00;11.80;72.00
32296;DHT22;18781;51.550;5.418;2023-04-21T07:07:25;11.90;72.00
32296;DHT22;18781;51.550;5.418;2023-04-21T07:09:51;11.90;72.00
32296;DHT22;18781;51.550;5.418;2023-04-21T07:12:17;12.00;72.30
32296;DHT22;18781;51.550;5.418;2023-04-21T07:14:42;12.00;72.10
32296;DHT22;18781;51.550;5.418;2023-04-21T07:17:08;12.00;71.70
32296;DHT22;18781;51.550;5.418;2023-04-21T07:19:33;12.10;71.60
32296;DHT22;18781;51.550;5.418;2023-04-21T07:21:59;12.10;71.30
32296;DHT22;18781;51.550;5.418;2023-04-21T07:24:25;12.20;71.40
32296;DHT22;18781;51.550;5.418;2023-04-21T07:26:50;12.30;71.40
32296;DHT22;18781;51.550;5.418;2023-04-21T07:29:16;12.30;71.20
32296;DHT22;18781;51.550;5.418;2023-04-21T07:31:41;12.30;70.90
32296;DHT22;18781;51.550;5.418;2023-04-21T07:34:07;12.30;71.20
32296;DHT22;18781;51.550;5.418;2023-04-21T07:36:33;12.40;71.10
32296;DHT22;18781;51.550;5.418;2023-04-21T07:38:58;12.40;70.90
32296;DHT22;18781;51.550;5.418;2023-04-21T07:41:24;12.50;70.30
32296;DHT22;18781;51.550;5.418;2023-04-21T07:43:50;12.50;70.50
32296;DHT22;18781;51.550;5.418;2023-04-21T07:46:15;12.60;70.50
32296;DHT22;18781;51.550;5.418;2023-04-21T07:48:41;12.60;70.70
32296;DHT22;18781;51.550;5.418;2023-04-21T07:51:06;12.60;70.70
32296;DHT22;18781;51.550;5.418;2023-04-21T07:53:32;12.70;71.00
32296;DHT22;18781;51.550;5.418;2023-04-21T07:55:58;12.80;70.60
32296;DHT22;18781;51.550;5.418;2023-04-21T07:58:23;12.80;70.40
32296;DHT22;18781;51.550;5.418;2023-04-21T08:00:49;12.90;70.40
32296;DHT22;18781;51.550;5.418;2023-04-21T08:03:14;12.90;70.30
32296;DHT22;18781;51.550;5.418;2023-04-21T08:05:40;13.00;70.10
32296;DHT22;18781;51.550;5.418;2023-04-21T08:08:06;13.10;69.30
32296;DHT22;18781;51.550;5.418;2023-04-21T08:10:32;13.10;68.80
32296;DHT22;18781;51.550;5.418;2023-04-21T08:12:57;13.20;68.70
32296;DHT22;18781;51.550;5.418;2023-04-21T08:15:23;13.20;68.60
32296;DHT22;18781;51.550;5.418;2023-04-21T08:17:49;13.20;68.60
32296;DHT22;18781;51.550;5.418;2023-04-21T08:20:14;13.30;68.80
32296;DHT22;18781;51.550;5.418;2023-04-21T08:22:40;13.30;68.60
32296;DHT22;18781;51.550;5.418;2023-04-21T08:25:06;13.40;68.40
32296;DHT22;18781;51.550;5.418;2023-04-21T08:27:32;13.40;68.50
32296;DHT22;18781;51.550;5.418;2023-04-21T08:29:58;13.60;68.50
32296;DHT22;18781;51.550;5.418;2023-04-21T08:32:24;13.60;68.20
32296;DHT22;18781;51.550;5.418;2023-04-21T08:34:52;13.70;67.90
32296;DHT22;18781;51.550;5.418;2023-04-21T08:37:18;13.80;67.40
32296;DHT22;18781;51.550;5.418;2023-04-21T08:39:44;13.80;67.90
32296;DHT22;18781;51.550;5.418;2023-04-21T08:42:12;13.90;67.30
32296;DHT22;18781;51.550;5.418;2023-04-21T08:44:39;14.00;67.00
32296;DHT22;18781;51.550;5.418;2023-04-21T08:47:08;14.00;66.70
32296;DHT22;18781;51.550;5.418;2023-04-21T08:49:34;14.10;66.20
32296;DHT22;18781;51.550;5.418;2023-04-21T08:52:02;14.20;66.00
32296;DHT22;18781;51.550;5.418;2023-04-21T08:54:27;14.20;65.70
32296;DHT22;18781;51.550;5.418;2023-04-21T08:56:53;14.30;66.20
32296;DHT22;18781;51.550;5.418;2023-04-21T08:59:18;14.40;66.00
32296;DHT22;18781;51.550;5.418;2023-04-21T09:02:10;14.40;65.90
32296;DHT22;18781;51.550;5.418;2023-04-21T09:04:46;14.50;65.20
32296;DHT22;18781;51.550;5.418;2023-04-21T09:07:29;14.60;65.70
32296;DHT22;18781;51.550;5.418;2023-04-21T09:09:56;14.70;65.30
32296;DHT22;18781;51.550;5.418;2023-04-21T09:12:22;14.70;65.30
32296;DHT22;18781;51.550;5.418;2023-04-21T09:14:48;14.80;65.10
32296;DHT22;18781;51.550;5.418;2023-04-21T09:17:19;14.80;65.10
32296;DHT22;18781;51.550;5.418;2023-04-21T09:19:45;14.90;64.50
32296;DHT22;18781;51.550;5.418;2023-04-21T09:22:17;15.00;64.20
32296;DHT22;18781;51.550;5.418;2023-04-21T09:24:47;15.10;64.00
32296;DHT22;18781;51.550;5.418;2023-04-21T09:27:16;15.10;63.60
32296;DHT22;18781;51.550;5.418;2023-04-21T09:29:46;15.20;64.00
32296;DHT22;18781;51.550;5.418;2023-04-21T09:32:19;15.30;64.40
32296;DHT22;18781;51.550;5.418;2023-04-21T09:34:45;15.40;63.20
32296;DHT22;18781;51.550;5.418;2023-04-21T09:37:12;15.50;63.90
32296;DHT22;18781;51.550;5.418;2023-04-21T09:39:38;15.60;62.90
32296;DHT22;18781;51.550;5.418;2023-04-21T09:42:04;15.70;63.80
32296;DHT22;18781;51.550;5.418;2023-04-21T09:44:30;15.80;63.10
32296;DHT22;18781;51.550;5.418;2023-04-21T09:46:59;15.80;62.90
32296;DHT22;18781;51.550;5.418;2023-04-21T09:49:30;15.90;62.20
32296;DHT22;18781;51.550;5.418;2023-04-21T09:52:00;16.00;62.20
32296;DHT22;18781;51.550;5.418;2023-04-21T09:54:29;16.10;62.70
32296;DHT22;18781;51.550;5.418;2023-04-21T09:57:01;16.20;61.60
32296;DHT22;18781;51.550;5.418;2023-04-21T09:59:35;16.30;61.40
32296;DHT22;18781;51.550;5.418;2023-04-21T10:02:04;16.40;61.30
32296;DHT22;18781;51.550;5.418;2023-04-21T10:04:30;16.40;62.10
32296;DHT22;18781;51.550;5.418;2023-04-21T10:07:00;16.50;61.10
32296;DHT22;18781;51.550;5.418;2023-04-21T10:09:34;16.60;60.40
32296;DHT22;18781;51.550;5.418;2023-04-21T10:12:01;16.80;58.00
32296;DHT22;18781;51.550;5.418;2023-04-21T10:14:28;16.80;59.10
32296;DHT22;18781;51.550;5.418;2023-04-21T10:17:08;16.80;60.00
32296;DHT22;18781;51.550;5.418;2023-04-21T10:19:36;16.80;59.40
32296;DHT22;18781;51.550;5.418;2023-04-21T10:22:07;16.90;59.00
32296;DHT22;18781;51.550;5.418;2023-04-21T10:24:38;16.90;59.10
32296;DHT22;18781;51.550;5.418;2023-04-21T10:27:04;17.00;58.10
32296;DHT22;18781;51.550;5.418;2023-04-21T10:29:33;17.00;58.60
32296;DHT22;18781;51.550;5.418;2023-04-21T10:31:59;17.10;57.70
32296;DHT22;18781;51.550;5.418;2023-04-21T10:37:08;17.20;58.00
32296;DHT22;18781;51.550;5.418;2023-04-21T10:39:43;17.20;57.90
32296;DHT22;18781;51.550;5.418;2023-04-21T10:44:59;17.30;57.30
32296;DHT22;18781;51.550;5.418;2023-04-21T10:47:47;17.30;57.80
32296;DHT22;18781;51.550;5.418;2023-04-21T10:50:18;17.40;58.00
32296;DHT22;18781;51.550;5.418;2023-04-21T10:52:46;17.50;57.50
32296;DHT22;18781;51.550;5.418;2023-04-21T10:55:12;17.50;58.70
32296;DHT22;18781;51.550;5.418;2023-04-21T10:57:42;17.60;58.30
32296;DHT22;18781;51.550;5.418;2023-04-21T11:00:09;17.70;57.80
32296;DHT22;18781;51.550;5.418;2023-04-21T11:02:36;17.80;57.30
32296;DHT22;18781;51.550;5.418;2023-04-21T11:05:01;17.90;57.80
32296;DHT22;18781;51.550;5.418;2023-04-21T11:07:27;17.90;56.60
32296;DHT22;18781;51.550;5.418;2023-04-21T11:10:01;17.90;55.90
32296;DHT22;18781;51.550;5.418;2023-04-21T11:12:29;18.00;56.00
32296;DHT22;18781;51.550;5.418;2023-04-21T11:14:55;18.00;55.50
32296;DHT22;18781;51.550;5.418;2023-04-21T11:17:21;18.00;55.70
32296;DHT22;18781;51.550;5.418;2023-04-21T11:19:51;18.10;55.40
32296;DHT22;18781;51.550;5.418;2023-04-21T11:22:17;18.10;55.30
32296;DHT22;18781;51.550;5.418;2023-04-21T11:24:46;18.10;55.50
32296;DHT22;18781;51.550;5.418;2023-04-21T11:27:11;18.20;55.80
32296;DHT22;18781;51.550;5.418;2023-04-21T11:29:39;18.20;56.20
32296;DHT22;18781;51.550;5.418;2023-04-21T11:32:08;18.30;57.20
32296;DHT22;18781;51.550;5.418;2023-04-21T11:34:36;18.40;54.80
32296;DHT22;18781;51.550;5.418;2023-04-21T11:37:02;18.50;55.40
32296;DHT22;18781;51.550;5.418;2023-04-21T11:39:28;18.60;55.00
32296;DHT22;18781;51.550;5.418;2023-04-21T11:41:53;18.60;54.60
32296;DHT22;18781;51.550;5.418;2023-04-21T11:44:32;18.70;54.60
32296;DHT22;18781;51.550;5.418;2023-04-21T11:46:58;18.70;54.50
32296;DHT22;18781;51.550;5.418;2023-04-21T11:49:25;18.80;54.60
32296;DHT22;18781;51.550;5.418;2023-04-21T11:51:53;18.80;53.40
32296;DHT22;18781;51.550;5.418;2023-04-21T11:54:19;18.90;53.40
32296;DHT22;18781;51.550;5.418;2023-04-21T11:56:47;18.90;53.60
32296;DHT22;18781;51.550;5.418;2023-04-21T11:59:17;18.90;52.40
32296;DHT22;18781;51.550;5.418;2023-04-21T12:01:47;19.00;52.00
32296;DHT22;18781;51.550;5.418;2023-04-21T12:06:46;19.00;52.40
32296;DHT22;18781;51.550;5.418;2023-04-21T12:09:19;19.00;52.10
32296;DHT22;18781;51.550;5.418;2023-04-21T12:11:50;19.00;51.60
32296;DHT22;18781;51.550;5.418;2023-04-21T12:14:21;19.00;51.60
32296;DHT22;18781;51.550;5.418;2023-04-21T12:16:55;19.00;50.80
32296;DHT22;18781;51.550;5.418;2023-04-21T12:21:52;19.10;51.30
32296;DHT22;18781;51.550;5.418;2023-04-21T12:24:18;19.10;50.30
32296;DHT22;18781;51.550;5.418;2023-04-21T12:26:44;19.10;51.40
32296;DHT22;18781;51.550;5.418;2023-04-21T12:29:09;19.20;51.50
32296;DHT22;18781;51.550;5.418;2023-04-21T12:31:35;19.20;52.00
32296;DHT22;18781;51.550;5.418;2023-04-21T12:34:00;19.30;52.00
32296;DHT22;18781;51.550;5.418;2023-04-21T12:36:26;19.40;51.70
32296;DHT22;18781;51.550;5.418;2023-04-21T12:38:52;19.40;51.50
32296;DHT22;18781;51.550;5.418;2023-04-21T12:41:17;19.50;51.50
32296;DHT22;18781;51.550;5.418;2023-04-21T12:43:44;19.60;51.00
32296;DHT22;18781;51.550;5.418;2023-04-21T12:46:10;19.70;50.00
32296;DHT22;18781;51.550;5.418;2023-04-21T12:48:35;19.70;49.70
32296;DHT22;18781;51.550;5.418;2023-04-21T12:51:01;19.80;50.30
32296;DHT22;18781;51.550;5.418;2023-04-21T12:53:27;19.90;49.80
32296;DHT22;18781;51.550;5.418;2023-04-21T12:55:52;20.00;49.00
32296;DHT22;18781;51.550;5.418;2023-04-21T12:58:18;20.00;48.00
32296;DHT22;18781;51.550;5.418;2023-04-21T13:00:43;20.10;49.60
32296;DHT22;18781;51.550;5.418;2023-04-21T13:03:09;20.10;48.50
32296;DHT22;18781;51.550;5.418;2023-04-21T13:05:34;20.20;47.60
32296;DHT22;18781;51.550;5.418;2023-04-21T13:08:00;20.30;48.50
32296;DHT22;18781;51.550;5.418;2023-04-21T13:10:26;20.30;49.50
32296;DHT22;18781;51.550;5.418;2023-04-21T13:12:51;20.40;49.40
32296;DHT22;18781;51.550;5.418;2023-04-21T13:15:17;20.40;49.80
32296;DHT22;18781;51.550;5.418;2023-04-21T13:17:42;20.40;50.20
32296;DHT22;18781;51.550;5.418;2023-04-21T13:20:08;20.40;50.00
32296;DHT22;18781;51.550;5.418;2023-04-21T13:22:34;20.40;48.80
32296;DHT22;18781;51.550;5.418;2023-04-21T13:25:00;20.40;48.60
32296;DHT22;18781;51.550;5.418;2023-04-21T13:27:25;20.40;48.90
32296;DHT22;18781;51.550;5.418;2023-04-21T13:29:51;20.40;49.00
32296;DHT22;18781;51.550;5.418;2023-04-21T13:32:18;20.30;48.70
32296;DHT22;18781;51.550;5.418;2023-04-21T13:34:44;20.30;49.00
32296;DHT22;18781;51.550;5.418;2023-04-21T13:37:10;20.30;49.30
32296;DHT22;18781;51.550;5.418;2023-04-21T13:39:39;20.40;49.60
32296;DHT22;18781;51.550;5.418;2023-04-21T13:42:05;20.30;49.60
32296;DHT22;18781;51.550;5.418;2023-04-21T13:44:31;20.30;49.10
32296;DHT22;18781;51.550;5.418;2023-04-21T13:46:56;20.30;48.70
32296;DHT22;18781;51.550;5.418;2023-04-21T13:49:22;20.20;49.00
32296;DHT22;18781;51.550;5.418;2023-04-21T13:51:47;20.20;48.60
32296;DHT22;18781;51.550;5.418;2023-04-21T13:54:13;20.20;48.80
32296;DHT22;18781;51.550;5.418;2023-04-21T13:56:38;20.20;49.50
32296;DHT22;18781;51.550;5.418;2023-04-21T13:59:04;20.20;49.10
32296;DHT22;18781;51.550;5.418;2023-04-21T14:01:30;20.30;49.10
32296;DHT22;18781;51.550;5.418;2023-04-21T14:03:56;20.30;48.60
32296;DHT22;18781;51.550;5.418;2023-04-21T14:06:22;20.40;48.30
32296;DHT22;18781;51.550;5.418;2023-04-21T14:08:47;20.40;48.60
32296;DHT22;18781;51.550;5.418;2023-04-21T14:11:13;20.50;48.90
32296;DHT22;18781;51.550;5.418;2023-04-21T14:13:39;20.50;48.80
32296;DHT22;18781;51.550;5.418;2023-04-21T14:16:05;20.50;49.00
32296;DHT22;18781;51.550;5.418;2023-04-21T14:18:32;20.50;48.80
32296;DHT22;18781;51.550;5.418;2023-04-21T14:20:57;20.50;48.50
32296;DHT22;18781;51.550;5.418;2023-04-21T14:23:23;20.40;48.60
32296;DHT22;18781;51.550;5.418;2023-04-21T14:25:49;20.40;49.00
32296;DHT22;18781;51.550;5.418;2023-04-21T14:28:14;20.40;48.10
32296;DHT22;18781;51.550;5.418;2023-04-21T14:30:40;20.40;47.80
32296;DHT22;18781;51.550;5.418;2023-04-21T14:33:07;20.30;48.70
32296;DHT22;18781;51.550;5.418;2023-04-21T14:35:35;20.20;49.10
32296;DHT22;18781;51.550;5.418;2023-04-21T14:38:01;20.30;49.30
32296;DHT22;18781;51.550;5.418;2023-04-21T14:40:26;20.30;49.20
32296;DHT22;18781;51.550;5.418;2023-04-21T14:42:52;20.30;48.90
32296;DHT22;18781;51.550;5.418;2023-04-21T14:45:17;20.30;49.00
32296;DHT22;18781;51.550;5.418;2023-04-21T14:47:43;20.30;49.30
32296;DHT22;18781;51.550;5.418;2023-04-21T14:50:09;20.30;48.60
32296;DHT22;18781;51.550;5.418;2023-04-21T14:52:35;20.30;49.20
32296;DHT22;18781;51.550;5.418;2023-04-21T14:55:00;20.40;48.40
32296;DHT22;18781;51.550;5.418;2023-04-21T14:57:28;20.40;48.20
32296;DHT22;18781;51.550;5.418;2023-04-21T14:59:53;20.50;48.40
32296;DHT22;18781;51.550;5.418;2023-04-21T15:02:20;20.50;49.10
32296;DHT22;18781;51.550;5.418;2023-04-21T15:04:45;20.60;48.20
32296;DHT22;18781;51.550;5.418;2023-04-21T15:07:12;20.60;48.10
32296;DHT22;18781;51.550;5.418;2023-04-21T15:09:37;20.70;47.40
32296;DHT22;18781;51.550;5.418;2023-04-21T15:12:13;20.70;47.90
32296;DHT22;18781;51.550;5.418;2023-04-21T15:14:39;20.70;48.10
32296;DHT22;18781;51.550;5.418;2023-04-21T15:17:05;20.70;47.40
32296;DHT22;18781;51.550;5.418;2023-04-21T15:19:31;20.60;47.10
32296;DHT22;18781;51.550;5.418;2023-04-21T15:21:56;20.60;47.10
32296;DHT22;18781;51.550;5.418;2023-04-21T15:24:22;20.60;47.90
32296;DHT22;18781;51.550;5.418;2023-04-21T15:26:48;20.60;47.50
32296;DHT22;18781;51.550;5.418;2023-04-21T15:29:13;20.50;47.60
32296;DHT22;18781;51.550;5.418;2023-04-21T15:31:39;20.50;48.00
32296;DHT22;18781;51.550;5.418;2023-04-21T15:34:04;20.50;48.30
32296;DHT22;18781;51.550;5.418;2023-04-21T15:36:30;20.40;49.40